sensor_id;sensor_type;location;lat;lon;timestamp;P1;durP1;ratioP1;P2;durP2;ratioP2
13487;SDS011;6816;48.506;9.050;2023-04-03T00:00:35;2.27;;;2.07;;
13487;SDS011;6816;48.506;9.050;2023-04-03T00:03:36;2.47;;;2.27;;
13487;SDS011;6816;48.506;9.050;2023-04-03T00:06:37;3.47;;;1.97;;
13487;SDS011;6816;48.506;9.050;2023-04-03T00:09:37;2.10;;;1.93;;
13487;SDS011;6816;48.506;9.050;2023-04-03T00:12:38;3.80;;;2.30;;
13487;SDS011;6816;48.506;9.050;2023-04-03T00:15:39;3.10;;;2.47;;
13487;SDS011;6816;48.506;9.050;2023-04-03T00:18:40;2.90;;;2.17;;
13487;SDS011;6816;48.506;9.050;2023-04-03T00:21:40;2.53;;;2.33;;
13487;SDS011;6816;48.506;9.050;2023-04-03T00:24:41;2.73;;;2.53;;
13487;SDS011;6816;48.506;9.050;2023-04-03T00:27:42;2.53;;;2.33;;
13487;SDS011;6816;48.506;9.050;2023-04-03T00:30:42;2.43;;;2.23;;
13487;SDS011;6816;48.506;9.050;2023-04-03T00:33:43;2.30;;;2.10;;
13487;SDS011;6816;48.506;9.050;2023-04-03T00:36:44;3.67;;;2.43;;
13487;SDS011;6816;48.506;9.050;2023-04-03T00:39:44;2.20;;;2.00;;
13487;SDS011;6816;48.506;9.050;2023-04-03T00:42:45;3.13;;;2.27;;
13487;SDS011;6816;48.506;9.050;2023-04-03T00:45:49;2.30;;;2.10;;
13487;SDS011;6816;48.506;9.050;2023-04-03T00:48:52;3.67;;;2.40;;
13487;SDS011;6816;48.506;9.050;2023-04-03T00:51:52;2.50;;;2.30;;
13487;SDS011;6816;48.506;9.050;2023-04-03T00:54:54;2.40;;;2.20;;
13487;SDS011;6816;48.506;9.050;2023-04-03T00:58:00;2.40;;;2.20;;
13487;SDS011;6816;48.506;9.050;2023-04-03T01:01:03;4.13;;;2.33;;
13487;SDS011;6816;48.506;9.050;2023-04-03T01:07:32;2.30;;;2.10;;
13487;SDS011;6816;48.506;9.050;2023-04-03T01:10:37;2.87;;;2.10;;
13487;SDS011;6816;48.506;9.050;2023-04-03T01:13:37;2.30;;;2.07;;
13487;SDS011;6816;48.506;9.050;2023-04-03T01:16:38;2.50;;;2.10;;
13487;SDS011;6816;48.506;9.050;2023-04-03T01:19:39;2.70;;;2.30;;
13487;SDS011;6816;48.506;9.050;2023-04-03T01:26:07;3.23;;;2.40;;
13487;SDS011;6816;48.506;9.050;2023-04-03T01:29:10;2.47;;;2.20;;
13487;SDS011;6816;48.506;9.050;2023-04-03T01:32:11;2.70;;;2.10;;
13487;SDS011;6816;48.506;9.050;2023-04-03T01:35:12;2.43;;;2.10;;
13487;SDS011;6816;48.506;9.050;2023-04-03T01:38:13;2.77;;;2.17;;
13487;SDS011;6816;48.506;9.050;2023-04-03T01:41:13;2.77;;;1.90;;
13487;SDS011;6816;48.506;9.050;2023-04-03T01:44:16;3.37;;;2.47;;
13487;SDS011;6816;48.506;9.050;2023-04-03T01:47:16;2.37;;;2.17;;
13487;SDS011;6816;48.506;9.050;2023-04-03T01:50:17;2.10;;;1.90;;
13487;SDS011;6816;48.506;9.050;2023-04-03T01:53:18;2.33;;;1.77;;
13487;SDS011;6816;48.506;9.050;2023-04-03T01:56:18;2.80;;;2.07;;
13487;SDS011;6816;48.506;9.050;2023-04-03T01:59:20;2.30;;;2.10;;
13487;SDS011;6816;48.506;9.050;2023-04-03T02:02:20;2.10;;;1.90;;
13487;SDS011;6816;48.506;9.050;2023-04-03T02:05:21;2.43;;;2.13;;
13487;SDS011;6816;48.506;9.050;2023-04-03T02:08:21;3.03;;;2.33;;
13487;SDS011;6816;48.506;9.050;2023-04-03T02:11:22;2.23;;;2.03;;
13487;SDS011;6816;48.506;9.050;2023-04-03T02:14:23;2.80;;;2.07;;
13487;SDS011;6816;48.506;9.050;2023-04-03T02:17:23;2.40;;;2.20;;
13487;SDS011;6816;48.506;9.050;2023-04-03T02:20:24;2.50;;;2.10;;
13487;SDS011;6816;48.506;9.050;2023-04-03T02:23:26;2.43;;;2.23;;
13487;SDS011;6816;48.506;9.050;2023-04-03T02:26:26;3.00;;;2.60;;
13487;SDS011;6816;48.506;9.050;2023-04-03T02:29:27;3.33;;;2.80;;
13487;SDS011;6816;48.506;9.050;2023-04-03T02:32:27;2.50;;;2.30;;
13487;SDS011;6816;48.506;9.050;2023-04-03T02:35:28;3.87;;;2.57;;
13487;SDS011;6816;48.506;9.050;2023-04-03T02:38:29;2.87;;;2.63;;
13487;SDS011;6816;48.506;9.050;2023-04-03T02:41:30;3.33;;;2.67;;
13487;SDS011;6816;48.506;9.050;2023-04-03T02:44:35;3.07;;;2.40;;
13487;SDS011;6816;48.506;9.050;2023-04-03T02:47:35;2.83;;;2.17;;
13487;SDS011;6816;48.506;9.050;2023-04-03T02:50:36;2.40;;;2.20;;
13487;SDS011;6816;48.506;9.050;2023-04-03T02:53:37;2.60;;;2.40;;
13487;SDS011;6816;48.506;9.050;2023-04-03T02:56:37;2.60;;;2.40;;
13487;SDS011;6816;48.506;9.050;2023-04-03T02:59:38;2.50;;;2.30;;
13487;SDS011;6816;48.506;9.050;2023-04-03T03:02:41;2.37;;;2.00;;
13487;SDS011;6816;48.506;9.050;2023-04-03T03:05:42;2.90;;;2.40;;
13487;SDS011;6816;48.506;9.050;2023-04-03T03:08:42;2.90;;;2.47;;
13487;SDS011;6816;48.506;9.050;2023-04-03T03:11:43;4.67;;;2.50;;
13487;SDS011;6816;48.506;9.050;2023-04-03T03:14:44;3.73;;;2.20;;
13487;SDS011;6816;48.506;9.050;2023-04-03T03:17:45;2.57;;;2.37;;
13487;SDS011;6816;48.506;9.050;2023-04-03T03:20:46;2.60;;;2.40;;
13487;SDS011;6816;48.506;9.050;2023-04-03T03:23:46;1.87;;;1.73;;
13487;SDS011;6816;48.506;9.050;2023-04-03T03:26:47;2.60;;;2.30;;
13487;SDS011;6816;48.506;9.050;2023-04-03T03:29:47;2.30;;;2.10;;
13487;SDS011;6816;48.506;9.050;2023-04-03T03:32:48;2.50;;;2.30;;
13487;SDS011;6816;48.506;9.050;2023-04-03T03:35:49;2.90;;;2.47;;
13487;SDS011;6816;48.506;9.050;2023-04-03T03:38:50;2.33;;;2.13;;
13487;SDS011;6816;48.506;9.050;2023-04-03T03:41:50;2.13;;;1.93;;
13487;SDS011;6816;48.506;9.050;2023-04-03T03:44:53;2.60;;;2.27;;
13487;SDS011;6816;48.506;9.050;2023-04-03T03:47:53;2.63;;;1.83;;
13487;SDS011;6816;48.506;9.050;2023-04-03T03:50:54;2.83;;;2.10;;
13487;SDS011;6816;48.506;9.050;2023-04-03T03:53:55;4.20;;;2.30;;
13487;SDS011;6816;48.506;9.050;2023-04-03T03:56:55;2.13;;;1.93;;
13487;SDS011;6816;48.506;9.050;2023-04-03T03:59:56;2.93;;;2.17;;
13487;SDS011;6816;48.506;9.050;2023-04-03T04:02:56;3.30;;;2.33;;
13487;SDS011;6816;48.506;9.050;2023-04-03T04:05:57;2.67;;;2.20;;
13487;SDS011;6816;48.506;9.050;2023-04-03T04:08:58;2.00;;;1.80;;
13487;SDS011;6816;48.506;9.050;2023-04-03T04:11:58;2.33;;;2.13;;
13487;SDS011;6816;48.506;9.050;2023-04-03T04:14:59;2.57;;;2.37;;
13487;SDS011;6816;48.506;9.050;2023-04-03T04:18:00;3.40;;;2.40;;
13487;SDS011;6816;48.506;9.050;2023-04-03T04:21:00;2.07;;;1.87;;
13487;SDS011;6816;48.506;9.050;2023-04-03T04:24:01;2.43;;;2.23;;
13487;SDS011;6816;48.506;9.050;2023-04-03T04:27:02;2.30;;;2.10;;
13487;SDS011;6816;48.506;9.050;2023-04-03T04:30:03;2.57;;;2.20;;
13487;SDS011;6816;48.506;9.050;2023-04-03T04:33:04;2.80;;;2.27;;
13487;SDS011;6816;48.506;9.050;2023-04-03T04:36:05;2.40;;;2.20;;
13487;SDS011;6816;48.506;9.050;2023-04-03T04:39:06;2.60;;;2.40;;
13487;SDS011;6816;48.506;9.050;2023-04-03T04:42:07;2.57;;;2.30;;
13487;SDS011;6816;48.506;9.050;2023-04-03T04:45:12;2.37;;;2.17;;
13487;SDS011;6816;48.506;9.050;2023-04-03T04:48:13;2.27;;;2.07;;
13487;SDS011;6816;48.506;9.050;2023-04-03T04:51:13;2.27;;;2.00;;
13487;SDS011;6816;48.506;9.050;2023-04-03T04:54:14;2.50;;;2.30;;
13487;SDS011;6816;48.506;9.050;2023-04-03T04:57:15;3.33;;;2.30;;
13487;SDS011;6816;48.506;9.050;2023-04-03T05:00:16;2.57;;;2.30;;
13487;SDS011;6816;48.506;9.050;2023-04-03T05:03:18;2.37;;;2.03;;
13487;SDS011;6816;48.506;9.050;2023-04-03T05:06:18;2.33;;;2.07;;
13487;SDS011;6816;48.506;9.050;2023-04-03T05:09:19;2.80;;;2.40;;
13487;SDS011;6816;48.506;9.050;2023-04-03T05:12:20;2.50;;;2.30;;
13487;SDS011;6816;48.506;9.050;2023-04-03T05:15:20;2.60;;;2.00;;
13487;SDS011;6816;48.506;9.050;2023-04-03T05:18:21;2.87;;;2.40;;
13487;SDS011;6816;48.506;9.050;2023-04-03T05:21:22;2.70;;;2.50;;
13487;SDS011;6816;48.506;9.050;2023-04-03T05:24:24;2.93;;;2.37;;
13487;SDS011;6816;48.506;9.050;2023-04-03T05:27:26;1.93;;;1.83;;
13487;SDS011;6816;48.506;9.050;2023-04-03T05:30:28;2.77;;;2.23;;
13487;SDS011;6816;48.506;9.050;2023-04-03T05:33:30;2.30;;;2.10;;
13487;SDS011;6816;48.506;9.050;2023-04-03T05:36:30;3.03;;;2.40;;
13487;SDS011;6816;48.506;9.050;2023-04-03T05:39:31;3.73;;;2.20;;
13487;SDS011;6816;48.506;9.050;2023-04-03T05:42:32;2.23;;;2.00;;
13487;SDS011;6816;48.506;9.050;2023-04-03T05:45:33;2.00;;;1.80;;
13487;SDS011;6816;48.506;9.050;2023-04-03T05:48:33;2.23;;;2.00;;
13487;SDS011;6816;48.506;9.050;2023-04-03T05:51:35;2.80;;;1.87;;
13487;SDS011;6816;48.506;9.050;2023-04-03T05:54:36;2.13;;;1.93;;
13487;SDS011;6816;48.506;9.050;2023-04-03T05:57:37;3.33;;;2.13;;
13487;SDS011;6816;48.506;9.050;2023-04-03T06:00:37;2.17;;;2.00;;
13487;SDS011;6816;48.506;9.050;2023-04-03T06:03:38;2.33;;;2.10;;
13487;SDS011;6816;48.506;9.050;2023-04-03T06:06:51;2.50;;;1.80;;
13487;SDS011;6816;48.506;9.050;2023-04-03T06:09:53;2.07;;;1.70;;
13487;SDS011;6816;48.506;9.050;2023-04-03T06:12:55;2.20;;;2.00;;
13487;SDS011;6816;48.506;9.050;2023-04-03T06:15:56;2.63;;;1.97;;
13487;SDS011;6816;48.506;9.050;2023-04-03T06:18:57;2.93;;;1.77;;
13487;SDS011;6816;48.506;9.050;2023-04-03T06:21:57;2.63;;;1.97;;
13487;SDS011;6816;48.506;9.050;2023-04-03T06:24:58;3.27;;;2.00;;
13487;SDS011;6816;48.506;9.050;2023-04-03T06:27:59;3.50;;;1.97;;
13487;SDS011;6816;48.506;9.050;2023-04-03T06:31:00;2.13;;;1.90;;
13487;SDS011;6816;48.506;9.050;2023-04-03T06:34:01;2.17;;;1.90;;
13487;SDS011;6816;48.506;9.050;2023-04-03T06:37:02;2.97;;;1.83;;
13487;SDS011;6816;48.506;9.050;2023-04-03T06:40:03;2.20;;;1.63;;
13487;SDS011;6816;48.506;9.050;2023-04-03T06:43:04;1.80;;;1.60;;
13487;SDS011;6816;48.506;9.050;2023-04-03T06:46:05;2.07;;;1.70;;
13487;SDS011;6816;48.506;9.050;2023-04-03T06:49:06;2.73;;;1.93;;
13487;SDS011;6816;48.506;9.050;2023-04-03T06:52:07;3.50;;;1.93;;
13487;SDS011;6816;48.506;9.050;2023-04-03T06:55:09;2.43;;;1.50;;
13487;SDS011;6816;48.506;9.050;2023-04-03T06:58:13;2.63;;;1.87;;
13487;SDS011;6816;48.506;9.050;2023-04-03T07:01:15;2.93;;;1.77;;
13487;SDS011;6816;48.506;9.050;2023-04-03T07:04:19;2.23;;;1.80;;
13487;SDS011;6816;48.506;9.050;2023-04-03T07:07:22;3.03;;;1.80;;
13487;SDS011;6816;48.506;9.050;2023-04-03T07:10:23;1.90;;;1.60;;
13487;SDS011;6816;48.506;9.050;2023-04-03T07:13:23;2.87;;;1.70;;
13487;SDS011;6816;48.506;9.050;2023-04-03T07:16:24;1.90;;;1.60;;
13487;SDS011;6816;48.506;9.050;2023-04-03T07:19:25;2.57;;;1.57;;
13487;SDS011;6816;48.506;9.050;2023-04-03T07:22:27;2.53;;;2.00;;
13487;SDS011;6816;48.506;9.050;2023-04-03T07:25:28;1.70;;;1.57;;
13487;SDS011;6816;48.506;9.050;2023-04-03T07:28:29;1.87;;;1.57;;
13487;SDS011;6816;48.506;9.050;2023-04-03T07:31:30;2.73;;;2.00;;
13487;SDS011;6816;48.506;9.050;2023-04-03T07:34:31;2.20;;;2.00;;
13487;SDS011;6816;48.506;9.050;2023-04-03T07:37:32;2.03;;;1.60;;
13487;SDS011;6816;48.506;9.050;2023-04-03T07:40:33;1.57;;;1.47;;
13487;SDS011;6816;48.506;9.050;2023-04-03T07:43:34;1.80;;;1.67;;
13487;SDS011;6816;48.506;9.050;2023-04-03T07:46:35;3.47;;;2.00;;
13487;SDS011;6816;48.506;9.050;2023-04-03T07:49:36;2.03;;;1.67;;
13487;SDS011;6816;48.506;9.050;2023-04-03T07:52:39;1.80;;;1.50;;
13487;SDS011;6816;48.506;9.050;2023-04-03T07:55:40;2.10;;;1.90;;
13487;SDS011;6816;48.506;9.050;2023-04-03T07:58:44;3.03;;;1.80;;
13487;SDS011;6816;48.506;9.050;2023-04-03T08:01:45;3.07;;;1.60;;
13487;SDS011;6816;48.506;9.050;2023-04-03T08:04:46;1.97;;;1.87;;
13487;SDS011;6816;48.506;9.050;2023-04-03T08:07:47;1.70;;;1.60;;
13487;SDS011;6816;48.506;9.050;2023-04-03T08:10:48;1.80;;;1.67;;
13487;SDS011;6816;48.506;9.050;2023-04-03T08:13:53;1.93;;;1.73;;
13487;SDS011;6816;48.506;9.050;2023-04-03T08:16:53;2.13;;;1.93;;
13487;SDS011;6816;48.506;9.050;2023-04-03T08:19:54;2.93;;;2.00;;
13487;SDS011;6816;48.506;9.050;2023-04-03T08:22:54;2.20;;;1.80;;
13487;SDS011;6816;48.506;9.050;2023-04-03T08:25:55;2.30;;;2.10;;
13487;SDS011;6816;48.506;9.050;2023-04-03T08:28:56;3.00;;;1.70;;
13487;SDS011;6816;48.506;9.050;2023-04-03T08:31:56;1.90;;;1.80;;
13487;SDS011;6816;48.506;9.050;2023-04-03T08:34:57;2.97;;;2.03;;
13487;SDS011;6816;48.506;9.050;2023-04-03T08:37:57;2.07;;;1.90;;
13487;SDS011;6816;48.506;9.050;2023-04-03T08:41:10;2.47;;;1.50;;
13487;SDS011;6816;48.506;9.050;2023-04-03T08:44:26;1.70;;;1.57;;
13487;SDS011;6816;48.506;9.050;2023-04-03T08:47:38;2.53;;;1.60;;
13487;SDS011;6816;48.506;9.050;2023-04-03T08:51:00;1.97;;;1.73;;
13487;SDS011;6816;48.506;9.050;2023-04-03T08:54:06;1.67;;;1.57;;
13487;SDS011;6816;48.506;9.050;2023-04-03T08:57:30;2.00;;;1.80;;
13487;SDS011;6816;48.506;9.050;2023-04-03T09:00:38;2.47;;;2.00;;
13487;SDS011;6816;48.506;9.050;2023-04-03T09:03:46;2.30;;;1.53;;
13487;SDS011;6816;48.506;9.050;2023-04-03T09:06:50;2.00;;;1.63;;
13487;SDS011;6816;48.506;9.050;2023-04-03T09:09:54;2.83;;;1.80;;
13487;SDS011;6816;48.506;9.050;2023-04-03T09:12:59;2.77;;;1.60;;
13487;SDS011;6816;48.506;9.050;2023-04-03T09:16:11;2.10;;;1.73;;
13487;SDS011;6816;48.506;9.050;2023-04-03T09:22:32;3.07;;;1.97;;
13487;SDS011;6816;48.506;9.050;2023-04-03T09:25:38;2.37;;;2.00;;
13487;SDS011;6816;48.506;9.050;2023-04-03T09:28:39;2.50;;;1.80;;
13487;SDS011;6816;48.506;9.050;2023-04-03T09:31:43;1.77;;;1.67;;
13487;SDS011;6816;48.506;9.050;2023-04-03T09:34:45;2.63;;;2.03;;
13487;SDS011;6816;48.506;9.050;2023-04-03T09:37:49;2.20;;;2.00;;
13487;SDS011;6816;48.506;9.050;2023-04-03T09:41:07;3.13;;;1.70;;
13487;SDS011;6816;48.506;9.050;2023-04-03T09:44:22;2.20;;;1.93;;
13487;SDS011;6816;48.506;9.050;2023-04-03T09:47:26;3.27;;;1.47;;
13487;SDS011;6816;48.506;9.050;2023-04-03T09:50:28;2.67;;;1.87;;
13487;SDS011;6816;48.506;9.050;2023-04-03T09:53:39;1.53;;;1.43;;
13487;SDS011;6816;48.506;9.050;2023-04-03T09:56:42;2.20;;;1.83;;
13487;SDS011;6816;48.506;9.050;2023-04-03T09:59:57;3.10;;;2.00;;
13487;SDS011;6816;48.506;9.050;2023-04-03T10:03:00;2.10;;;1.50;;
13487;SDS011;6816;48.506;9.050;2023-04-03T10:06:02;2.97;;;1.63;;
13487;SDS011;6816;48.506;9.050;2023-04-03T10:09:05;2.63;;;1.83;;
13487;SDS011;6816;48.506;9.050;2023-04-03T10:12:16;1.97;;;1.77;;
13487;SDS011;6816;48.506;9.050;2023-04-03T10:15:20;2.13;;;1.70;;
13487;SDS011;6816;48.506;9.050;2023-04-03T10:18:27;1.63;;;1.50;;
13487;SDS011;6816;48.506;9.050;2023-04-03T10:21:33;2.13;;;1.73;;
13487;SDS011;6816;48.506;9.050;2023-04-03T10:27:55;2.60;;;2.30;;
13487;SDS011;6816;48.506;9.050;2023-04-03T10:31:04;3.60;;;2.17;;
13487;SDS011;6816;48.506;9.050;2023-04-03T10:37:21;2.83;;;1.87;;
13487;SDS011;6816;48.506;9.050;2023-04-03T10:40:50;2.17;;;1.60;;
13487;SDS011;6816;48.506;9.050;2023-04-03T10:44:05;1.60;;;1.50;;
13487;SDS011;6816;48.506;9.050;2023-04-03T10:47:22;1.63;;;1.53;;
13487;SDS011;6816;48.506;9.050;2023-04-03T10:57:08;2.60;;;2.40;;
13487;SDS011;6816;48.506;9.050;2023-04-03T11:00:14;2.47;;;1.83;;
13487;SDS011;6816;48.506;9.050;2023-04-03T11:03:44;1.60;;;1.50;;
13487;SDS011;6816;48.506;9.050;2023-04-03T11:06:57;2.03;;;1.70;;
13487;SDS011;6816;48.506;9.050;2023-04-03T11:10:44;1.70;;;1.60;;
13487;SDS011;6816;48.506;9.050;2023-04-03T11:13:49;2.17;;;1.60;;
13487;SDS011;6816;48.506;9.050;2023-04-03T11:23:36;2.30;;;1.50;;
13487;SDS011;6816;48.506;9.050;2023-04-03T11:26:40;2.03;;;1.40;;
13487;SDS011;6816;48.506;9.050;2023-04-03T11:29:42;2.03;;;1.47;;
13487;SDS011;6816;48.506;9.050;2023-04-03T11:36:26;1.73;;;1.30;;
13487;SDS011;6816;48.506;9.050;2023-04-03T11:39:34;1.97;;;1.30;;
13487;SDS011;6816;48.506;9.050;2023-04-03T11:42:40;1.70;;;1.50;;
13487;SDS011;6816;48.506;9.050;2023-04-03T11:45:57;1.60;;;1.30;;
13487;SDS011;6816;48.506;9.050;2023-04-03T11:49:00;1.47;;;1.30;;
13487;SDS011;6816;48.506;9.050;2023-04-03T11:52:01;2.10;;;1.47;;
13487;SDS011;6816;48.506;9.050;2023-04-03T11:55:02;1.90;;;1.40;;
13487;SDS011;6816;48.506;9.050;2023-04-03T11:58:30;1.67;;;1.27;;
13487;SDS011;6816;48.506;9.050;2023-04-03T12:01:42;1.20;;;1.10;;
13487;SDS011;6816;48.506;9.050;2023-04-03T12:04:53;1.20;;;1.10;;
13487;SDS011;6816;48.506;9.050;2023-04-03T12:11:43;2.80;;;1.27;;
13487;SDS011;6816;48.506;9.050;2023-04-03T12:14:43;2.07;;;1.33;;
13487;SDS011;6816;48.506;9.050;2023-04-03T12:17:44;1.20;;;1.10;;
13487;SDS011;6816;48.506;9.050;2023-04-03T12:30:21;2.30;;;1.30;;
13487;SDS011;6816;48.506;9.050;2023-04-03T12:39:55;1.30;;;1.20;;
13487;SDS011;6816;48.506;9.050;2023-04-03T12:46:36;1.50;;;1.10;;
13487;SDS011;6816;48.506;9.050;2023-04-03T12:49:41;1.50;;;1.40;;
13487;SDS011;6816;48.506;9.050;2023-04-03T12:52:45;2.10;;;1.30;;
13487;SDS011;6816;48.506;9.050;2023-04-03T12:55:54;3.00;;;1.40;;
13487;SDS011;6816;48.506;9.050;2023-04-03T12:59:19;2.10;;;1.40;;
13487;SDS011;6816;48.506;9.050;2023-04-03T13:02:28;3.53;;;1.40;;
13487;SDS011;6816;48.506;9.050;2023-04-03T13:05:31;1.50;;;1.20;;
13487;SDS011;6816;48.506;9.050;2023-04-03T13:08:33;1.77;;;1.27;;
13487;SDS011;6816;48.506;9.050;2023-04-03T13:11:34;2.10;;;1.60;;
13487;SDS011;6816;48.506;9.050;2023-04-03T13:14:38;3.07;;;1.70;;
13487;SDS011;6816;48.506;9.050;2023-04-03T13:17:43;1.57;;;1.40;;
13487;SDS011;6816;48.506;9.050;2023-04-03T13:20:44;2.13;;;1.40;;
13487;SDS011;6816;48.506;9.050;2023-04-03T13:23:50;2.37;;;1.63;;
13487;SDS011;6816;48.506;9.050;2023-04-03T13:26:52;1.80;;;1.30;;
13487;SDS011;6816;48.506;9.050;2023-04-03T13:29:54;2.30;;;1.90;;
13487;SDS011;6816;48.506;9.050;2023-04-03T13:32:59;1.60;;;1.50;;
13487;SDS011;6816;48.506;9.050;2023-04-03T13:36:08;2.90;;;1.63;;
13487;SDS011;6816;48.506;9.050;2023-04-03T13:39:22;1.83;;;1.37;;
13487;SDS011;6816;48.506;9.050;2023-04-03T13:42:26;2.83;;;1.50;;
13487;SDS011;6816;48.506;9.050;2023-04-03T13:45:30;2.90;;;1.40;;
13487;SDS011;6816;48.506;9.050;2023-04-03T13:48:38;2.23;;;1.40;;
13487;SDS011;6816;48.506;9.050;2023-04-03T13:51:44;1.27;;;1.17;;
13487;SDS011;6816;48.506;9.050;2023-04-03T13:54:45;1.57;;;1.30;;
13487;SDS011;6816;48.506;9.050;2023-04-03T13:57:55;4.27;;;1.70;;
13487;SDS011;6816;48.506;9.050;2023-04-03T14:01:10;1.97;;;1.00;;
13487;SDS011;6816;48.506;9.050;2023-04-03T14:04:23;1.87;;;1.30;;
13487;SDS011;6816;48.506;9.050;2023-04-03T14:07:28;2.43;;;1.27;;
13487;SDS011;6816;48.506;9.050;2023-04-03T14:10:30;2.23;;;1.60;;
13487;SDS011;6816;48.506;9.050;2023-04-03T14:13:31;2.10;;;1.27;;
13487;SDS011;6816;48.506;9.050;2023-04-03T14:16:33;1.50;;;1.40;;
13487;SDS011;6816;48.506;9.050;2023-04-03T14:19:39;1.70;;;1.50;;
13487;SDS011;6816;48.506;9.050;2023-04-03T14:22:40;2.80;;;1.67;;
13487;SDS011;6816;48.506;9.050;2023-04-03T14:25:41;1.33;;;1.23;;
13487;SDS011;6816;48.506;9.050;2023-04-03T14:28:42;2.23;;;1.40;;
13487;SDS011;6816;48.506;9.050;2023-04-03T14:31:45;2.53;;;1.40;;
13487;SDS011;6816;48.506;9.050;2023-04-03T14:34:46;1.77;;;1.40;;
13487;SDS011;6816;48.506;9.050;2023-04-03T14:37:48;3.27;;;1.73;;
13487;SDS011;6816;48.506;9.050;2023-04-03T14:40:50;2.87;;;1.40;;
13487;SDS011;6816;48.506;9.050;2023-04-03T14:43:52;1.70;;;1.60;;
13487;SDS011;6816;48.506;9.050;2023-04-03T14:46:53;2.10;;;1.50;;
13487;SDS011;6816;48.506;9.050;2023-04-03T14:49:53;2.77;;;1.80;;
13487;SDS011;6816;48.506;9.050;2023-04-03T14:52:56;2.73;;;1.80;;
13487;SDS011;6816;48.506;9.050;2023-04-03T14:55:58;3.10;;;1.60;;
13487;SDS011;6816;48.506;9.050;2023-04-03T14:58:59;1.77;;;1.30;;
13487;SDS011;6816;48.506;9.050;2023-04-03T15:02:00;2.97;;;1.60;;
13487;SDS011;6816;48.506;9.050;2023-04-03T15:05:03;1.50;;;1.40;;
13487;SDS011;6816;48.506;9.050;2023-04-03T15:08:08;2.30;;;1.40;;
13487;SDS011;6816;48.506;9.050;2023-04-03T15:11:20;2.33;;;1.53;;
13487;SDS011;6816;48.506;9.050;2023-04-03T15:14:22;1.73;;;1.17;;
13487;SDS011;6816;48.506;9.050;2023-04-03T15:17:22;1.30;;;1.20;;
13487;SDS011;6816;48.506;9.050;2023-04-03T15:20:24;2.43;;;1.83;;
13487;SDS011;6816;48.506;9.050;2023-04-03T15:23:26;1.73;;;1.23;;
13487;SDS011;6816;48.506;9.050;2023-04-03T15:26:28;2.07;;;1.30;;
13487;SDS011;6816;48.506;9.050;2023-04-03T15:29:29;2.97;;;1.67;;
13487;SDS011;6816;48.506;9.050;2023-04-03T15:32:30;2.20;;;1.60;;
13487;SDS011;6816;48.506;9.050;2023-04-03T15:35:31;2.07;;;1.60;;
13487;SDS011;6816;48.506;9.050;2023-04-03T15:38:31;2.30;;;1.60;;
13487;SDS011;6816;48.506;9.050;2023-04-03T15:41:32;1.97;;;1.40;;
13487;SDS011;6816;48.506;9.050;2023-04-03T15:44:33;1.77;;;1.43;;
13487;SDS011;6816;48.506;9.050;2023-04-03T15:47:34;2.50;;;1.60;;
13487;SDS011;6816;48.506;9.050;2023-04-03T15:50:35;2.60;;;1.57;;
13487;SDS011;6816;48.506;9.050;2023-04-03T15:53:36;3.43;;;2.30;;
13487;SDS011;6816;48.506;9.050;2023-04-03T15:56:36;3.80;;;2.00;;
13487;SDS011;6816;48.506;9.050;2023-04-03T15:59:37;3.43;;;2.17;;
13487;SDS011;6816;48.506;9.050;2023-04-03T16:02:37;2.10;;;1.50;;
13487;SDS011;6816;48.506;9.050;2023-04-03T16:05:38;2.83;;;2.20;;
13487;SDS011;6816;48.506;9.050;2023-04-03T16:08:40;3.47;;;2.27;;
13487;SDS011;6816;48.506;9.050;2023-04-03T16:11:41;4.17;;;2.00;;
13487;SDS011;6816;48.506;9.050;2023-04-03T16:14:43;2.50;;;1.90;;
13487;SDS011;6816;48.506;9.050;2023-04-03T16:17:43;1.70;;;1.50;;
13487;SDS011;6816;48.506;9.050;2023-04-03T16:20:45;1.93;;;1.40;;
13487;SDS011;6816;48.506;9.050;2023-04-03T16:23:46;2.73;;;1.43;;
13487;SDS011;6816;48.506;9.050;2023-04-03T16:26:46;1.90;;;1.50;;
13487;SDS011;6816;48.506;9.050;2023-04-03T16:29:47;2.93;;;1.70;;
13487;SDS011;6816;48.506;9.050;2023-04-03T16:32:47;1.67;;;1.40;;
13487;SDS011;6816;48.506;9.050;2023-04-03T16:35:49;1.60;;;1.50;;
13487;SDS011;6816;48.506;9.050;2023-04-03T16:38:50;4.63;;;2.53;;
13487;SDS011;6816;48.506;9.050;2023-04-03T16:41:51;5.50;;;3.13;;
13487;SDS011;6816;48.506;9.050;2023-04-03T16:44:51;5.77;;;3.23;;
13487;SDS011;6816;48.506;9.050;2023-04-03T16:47:52;7.43;;;4.93;;
13487;SDS011;6816;48.506;9.050;2023-04-03T16:50:53;5.20;;;3.33;;
13487;SDS011;6816;48.506;9.050;2023-04-03T16:53:54;5.77;;;3.00;;
13487;SDS011;6816;48.506;9.050;2023-04-03T16:56:54;5.40;;;2.87;;
13487;SDS011;6816;48.506;9.050;2023-04-03T16:59:55;4.30;;;2.77;;
13487;SDS011;6816;48.506;9.050;2023-04-03T17:02:56;3.90;;;2.37;;
13487;SDS011;6816;48.506;9.050;2023-04-03T17:05:56;4.00;;;2.80;;
13487;SDS011;6816;48.506;9.050;2023-04-03T17:08:57;3.47;;;2.43;;
13487;SDS011;6816;48.506;9.050;2023-04-03T17:11:58;3.63;;;2.77;;
13487;SDS011;6816;48.506;9.050;2023-04-03T17:14:58;3.53;;;2.20;;
13487;SDS011;6816;48.506;9.050;2023-04-03T17:17:59;3.27;;;2.43;;
13487;SDS011;6816;48.506;9.050;2023-04-03T17:21:00;3.80;;;1.90;;
13487;SDS011;6816;48.506;9.050;2023-04-03T17:24:02;3.40;;;1.93;;
13487;SDS011;6816;48.506;9.050;2023-04-03T17:27:08;3.27;;;2.37;;
13487;SDS011;6816;48.506;9.050;2023-04-03T17:30:09;2.83;;;2.07;;
13487;SDS011;6816;48.506;9.050;2023-04-03T17:33:10;2.60;;;1.60;;
13487;SDS011;6816;48.506;9.050;2023-04-03T17:36:10;2.70;;;1.77;;
13487;SDS011;6816;48.506;9.050;2023-04-03T17:39:11;1.90;;;1.40;;
13487;SDS011;6816;48.506;9.050;2023-04-03T17:42:12;2.57;;;1.50;;
13487;SDS011;6816;48.506;9.050;2023-04-03T17:45:13;1.30;;;1.20;;
13487;SDS011;6816;48.506;9.050;2023-04-03T17:48:14;2.37;;;1.57;;
13487;SDS011;6816;48.506;9.050;2023-04-03T17:51:16;2.23;;;1.53;;
13487;SDS011;6816;48.506;9.050;2023-04-03T17:54:19;3.37;;;1.77;;
13487;SDS011;6816;48.506;9.050;2023-04-03T17:57:20;3.37;;;2.10;;
13487;SDS011;6816;48.506;9.050;2023-04-03T18:00:20;2.27;;;1.70;;
13487;SDS011;6816;48.506;9.050;2023-04-03T18:03:21;2.20;;;1.73;;
13487;SDS011;6816;48.506;9.050;2023-04-03T18:06:24;2.20;;;1.57;;
13487;SDS011;6816;48.506;9.050;2023-04-03T18:09:28;3.60;;;2.53;;
13487;SDS011;6816;48.506;9.050;2023-04-03T18:12:31;2.70;;;1.70;;
13487;SDS011;6816;48.506;9.050;2023-04-03T18:15:32;2.43;;;1.40;;
13487;SDS011;6816;48.506;9.050;2023-04-03T18:18:33;2.57;;;1.40;;
13487;SDS011;6816;48.506;9.050;2023-04-03T18:21:34;2.43;;;1.70;;
13487;SDS011;6816;48.506;9.050;2023-04-03T18:24:35;2.73;;;1.60;;
13487;SDS011;6816;48.506;9.050;2023-04-03T18:27:36;2.63;;;1.63;;
13487;SDS011;6816;48.506;9.050;2023-04-03T18:30:37;2.77;;;1.83;;
13487;SDS011;6816;48.506;9.050;2023-04-03T18:33:37;3.10;;;2.20;;
13487;SDS011;6816;48.506;9.050;2023-04-03T18:36:39;3.23;;;2.20;;
13487;SDS011;6816;48.506;9.050;2023-04-03T18:39:40;2.53;;;2.00;;
13487;SDS011;6816;48.506;9.050;2023-04-03T18:42:40;3.13;;;2.03;;
13487;SDS011;6816;48.506;9.050;2023-04-03T18:45:42;2.73;;;2.10;;
13487;SDS011;6816;48.506;9.050;2023-04-03T18:48:42;2.77;;;1.90;;
13487;SDS011;6816;48.506;9.050;2023-04-03T18:51:45;4.03;;;1.83;;
13487;SDS011;6816;48.506;9.050;2023-04-03T18:54:46;2.63;;;1.97;;
13487;SDS011;6816;48.506;9.050;2023-04-03T18:57:47;2.00;;;1.73;;
13487;SDS011;6816;48.506;9.050;2023-04-03T19:00:48;2.90;;;2.20;;
13487;SDS011;6816;48.506;9.050;2023-04-03T19:03:49;3.63;;;2.53;;
13487;SDS011;6816;48.506;9.050;2023-04-03T19:06:50;4.83;;;3.53;;
13487;SDS011;6816;48.506;9.050;2023-04-03T19:09:52;4.97;;;4.00;;
13487;SDS011;6816;48.506;9.050;2023-04-03T19:12:53;4.67;;;3.50;;
13487;SDS011;6816;48.506;9.050;2023-04-03T19:15:55;3.80;;;2.77;;
13487;SDS011;6816;48.506;9.050;2023-04-03T19:18:58;2.87;;;2.40;;
13487;SDS011;6816;48.506;9.050;2023-04-03T19:21:59;3.80;;;2.40;;
13487;SDS011;6816;48.506;9.050;2023-04-03T19:25:00;2.10;;;1.90;;
13487;SDS011;6816;48.506;9.050;2023-04-03T19:28:01;2.10;;;1.90;;
13487;SDS011;6816;48.506;9.050;2023-04-03T19:31:01;2.70;;;1.80;;
13487;SDS011;6816;48.506;9.050;2023-04-03T19:34:03;2.37;;;1.50;;